Marianne — VRFM5 — position and weather

sailwx.info

Track history (hours):
 
Tides and Currents Weather Stations Pressure Air Temp Water Temp Dewpoint Dewpoint Depression Visibility Wind Speed Wind Dir Waves Ship Positions

Marianne

Last reported at 2017-Apr-27 13:47 UTC. Time now 2017-Apr-27 14:55 UTC.
Position N 51°16' E 004°15'.

Length 97 m; draft 5.5 m.

Type: Ship (hazmat cat B). MMSI: 477560836.

Date/timePositionNaut miles runAvg speedWind from/ knotsBaromVisibWave heightAir tempDewpointWater temp
2017-Apr-27 13:47N 51°16' E 004°15'0 0.0
2017-Apr-27 13:26N 51°16' E 004°15'0 0.0
2017-Apr-27 12:53N 51°16' E 004°15'0 0.0
2017-Apr-27 12:29N 51°16' E 004°15'0 0.0
2017-Apr-27 11:56N 51°16' E 004°15'0 0.0
2017-Apr-27 11:29N 51°16' E 004°15'0 0.0
2017-Apr-27 10:59N 51°16' E 004°15'0 0.5
2017-Apr-27 10:30N 51°16' E 004°16'1 1.4
2017-Apr-27 10:00N 51°16' E 004°17'1 1.1
2017-Apr-27 09:30N 51°16' E 004°18'3 5.3
2017-Apr-27 08:59N 51°19' E 004°16'510.1
2017-Apr-27 08:30N 51°23' E 004°13'4 8.8
2017-Apr-27 08:00N 51°22' E 004°06'5 9.2
2017-Apr-27 07:28N 51°26' E 004°01'4 9.0
2017-Apr-27 07:00N 51°23' E 003°56'5 9.3
2017-Apr-27 06:26N 51°21' E 003°49'5 9.8
2017-Apr-27 05:58N 51°23' E 003°43'4 7.9
2017-Apr-27 05:26N 51°26' E 003°37'4 7.8
2017-Apr-27 04:59N 51°25' E 003°31'4 9.2
2017-Apr-27 04:30N 51°24' E 003°25'510.6
2017-Apr-27 04:00N 51°24' E 003°16'612.2
2017-Apr-27 03:30N 51°24' E 003°06'612.0
2017-Apr-27 03:00N 51°22' E 002°57'612.7
2017-Apr-27 02:30N 51°22' E 002°47'4 8.6
2017-Apr-27 02:00N 51°21' E 002°40'4 8.3
2017-Apr-27 01:30N 51°20' E 002°34'0 0.1
2017-Apr-27 00:57N 51°20' E 002°34'0 0.0
2017-Apr-27 00:30N 51°20' E 002°34'0 0.0
2017-Apr-27 00:00N 51°20' E 002°34'0 0.1
2017-Apr-26 23:30N 51°20' E 002°34'0 0.2
2017-Apr-26 22:57N 51°20' E 002°34'0 0.1
2017-Apr-26 22:30N 51°20' E 002°34'0 0.1
2017-Apr-26 22:00N 51°20' E 002°34'0 0.1
2017-Apr-26 21:30N 51°20' E 002°34'0 0.0
2017-Apr-26 21:00N 51°20' E 002°34'0 0.0
2017-Apr-26 20:30N 51°20' E 002°34'1 1.8
2017-Apr-26 20:01N 51°21' E 002°33'5 9.3
2017-Apr-26 19:30N 51°20' E 002°25'5 9.8
2017-Apr-26 19:00N 51°18' E 002°18'5 9.9
2017-Apr-26 18:30N 51°16' E 002°11'611.9
2017-Apr-26 18:01N 51°13' E 002°03'5 9.0
2017-Apr-26 17:30N 51°11' E 001°57'511.0
2017-Apr-26 17:00N 51°08' E 001°49'510.8
2017-Apr-26 16:30N 51°04' E 001°43'611.0
2017-Apr-26 16:00N 51°00' E 001°37'611.6
2017-Apr-26 15:30N 50°56' E 001°31'6311.6
2017-Apr-26 10:03N 50°19' E 000°10'113.4
2017-Apr-26 09:59N 50°19' E 000°09'714.3
2017-Apr-26 09:30N 50°18' W 000°02'815.0
2017-Apr-26 08:56N 50°16' W 000°15'11512.4
2017-Apr-25 23:39N 49°44' W 003°08'110.1
2017-Apr-25 23:30N 49°43' W 003°10'510.1
2017-Apr-25 23:00N 49°41' W 003°16'510.3
2017-Apr-25 22:30N 49°38' W 003°23'8111.8
2017-Apr-25 15:39N 48°56' W 005°09'213.0
2017-Apr-25 15:30N 48°55' W 005°12'812.9
2017-Apr-25 14:52N 48°51' W 005°22'513.2
2017-Apr-25 14:30N 48°49' W 005°29'47312.1
2017-Apr-23 23:22N 41°35' W 009°57'2213.0
2017-Apr-23 21:42N 41°14' W 009°57'312.8
2017-Apr-23 21:29N 41°11' W 009°56'612.7
2017-Apr-23 21:01N 41°05' W 009°56'1512.4
2017-Apr-23 19:46N 40°50' W 009°57'412.4
2017-Apr-23 19:29N 40°46' W 009°56'612.4
2017-Apr-23 19:00N 40°40' W 009°56'612.4
2017-Apr-23 18:30N 40°34' W 009°56'612.4
2017-Apr-23 18:00N 40°28' W 009°56'612.5
2017-Apr-23 17:30N 40°21' W 009°56'812.5
2017-Apr-23 16:50N 40°13' W 009°57'412.8
2017-Apr-23 16:29N 40°08' W 009°57'612.6
2017-Apr-23 16:00N 40°02' W 009°56'612.8
2017-Apr-23 15:31N 39°56' W 009°56'612.7
2017-Apr-23 15:00N 39°50' W 009°56'1312.9
2017-Apr-23 14:01N 39°37' W 009°56'713.3
2017-Apr-23 13:30N 39°30' W 009°56'713.3
2017-Apr-23 13:00N 39°23' W 009°56'713.3
2017-Apr-23 12:31N 39°17' W 009°57'713.5
2017-Apr-23 12:01N 39°10' W 009°57'713.3
2017-Apr-23 11:30N 39°03' W 009°56'713.3
2017-Apr-23 11:01N 38°57' W 009°57'713.3
2017-Apr-23 10:30N 38°50' W 009°57'713.2
2017-Apr-23 10:01N 38°44' W 009°57'713.1
2017-Apr-23 09:30N 38°37' W 009°55'612.6
2017-Apr-23 09:01N 38°32' W 009°50'612.6
2017-Apr-23 08:30N 38°28' W 009°44'613.0
2017-Apr-23 08:00N 38°24' W 009°37'612.9
2017-Apr-23 07:30N 38°20' W 009°31'613.1
2017-Apr-23 07:01N 38°15' W 009°25'713.2
2017-Apr-23 06:31N 38°11' W 009°18'713.3
2017-Apr-23 06:01N 38°07' W 009°12'713.6
2017-Apr-23 05:30N 38°02' W 009°05'713.7
2017-Apr-23 05:00N 37°58' W 008°59'5 9.2
2017-Apr-23 04:31N 37°57' W 008°53'0 0.6
2017-Apr-23 04:00N 37°57' W 008°53'0 0.0
2017-Apr-23 03:29N 37°57' W 008°53'0 0.0
2017-Apr-23 02:59N 37°57' W 008°53'0 0.0
2017-Apr-23 02:29N 37°57' W 008°53'0 0.0
2017-Apr-23 01:59N 37°57' W 008°53'0 0.0
2017-Apr-23 01:26N 37°57' W 008°53'0 0.0
2017-Apr-23 00:59N 37°57' W 008°53'0 0.0
2017-Apr-23 00:29N 37°57' W 008°53'0 0.0
2017-Apr-22 23:59N 37°57' W 008°53'0 0.0
2017-Apr-22 23:29N 37°57' W 008°53'0 0.0
2017-Apr-22 22:59N 37°57' W 008°53'0 0.0
2017-Apr-22 22:29N 37°57' W 008°53'0 0.0
2017-Apr-22 21:59N 37°57' W 008°53'0 0.0
2017-Apr-22 21:29N 37°57' W 008°53'0 0.0
2017-Apr-22 20:59N 37°57' W 008°53'0 0.0
2017-Apr-22 20:29N 37°57' W 008°53'0 0.0
2017-Apr-22 19:59N 37°57' W 008°53'0 0.0
2017-Apr-22 19:29N 37°57' W 008°53'0 0.0
2017-Apr-22 18:59N 37°57' W 008°53'0 0.0
2017-Apr-22 18:29N 37°57' W 008°53'0 0.0
2017-Apr-22 17:59N 37°57' W 008°53'0 0.0
2017-Apr-22 17:29N 37°57' W 008°53'0 0.0
2017-Apr-22 16:59N 37°57' W 008°53'0 0.0
2017-Apr-22 16:29N 37°57' W 008°53'0 0.0
2017-Apr-22 15:59N 37°57' W 008°53'0 0.0
2017-Apr-22 15:26N 37°57' W 008°53'0 0.0
2017-Apr-22 14:59N 37°57' W 008°53'0 0.0
2017-Apr-22 14:29N 37°57' W 008°53'0 0.0
2017-Apr-22 13:29N 37°57' W 008°53'0 0.0
2017-Apr-22 12:59N 37°57' W 008°53'0 0.0
2017-Apr-22 12:29N 37°57' W 008°53'0 0.0
2017-Apr-22 11:59N 37°57' W 008°53'0 0.0
2017-Apr-22 11:29N 37°57' W 008°53'0 0.0
2017-Apr-22 11:00N 37°57' W 008°53'0 0.0
2017-Apr-22 10:30N 37°57' W 008°53'0 0.0
2017-Apr-22 10:00N 37°57' W 008°53'0 0.0
2017-Apr-22 09:30N 37°57' W 008°53'0 0.1
2017-Apr-22 09:00N 37°57' W 008°53'2 3.3
2017-Apr-22 08:30N 37°55' W 008°54'1 1.2
2017-Apr-22 08:00N 37°55' W 008°54'2 4.2
2017-Apr-22 07:30N 37°56' W 008°56'3 5.2
2017-Apr-22 07:00N 37°58' W 008°59'3 5.3
2017-Apr-22 06:30N 37°60' W 009°01'3 5.6
2017-Apr-22 06:00N 38°01' W 009°04'1 2.8
2017-Apr-22 05:30N 38°03' W 009°04'3 6.3
2017-Apr-22 05:00N 38°06' W 009°04'612.2
2017-Apr-22 04:30N 38°11' W 009°09'612.4
2017-Apr-22 04:00N 38°15' W 009°14'612.9
2017-Apr-22 03:30N 38°21' W 009°18'612.5
2017-Apr-22 03:00N 38°27' W 009°21'713.0
2017-Apr-22 02:30N 38°33' W 009°23'4 8.6
2017-Apr-22 02:00N 38°37' W 009°24'612.3
2017-Apr-22 01:30N 38°41' W 009°17'3 6.0
2017-Apr-22 01:00N 38°41' W 009°14'0 0.0
2017-Apr-22 00:30N 38°41' W 009°14'0 0.0
2017-Apr-21 23:45N 38°41' W 009°14'0 0.0
2017-Apr-21 23:27N 38°41' W 009°14'0 0.0
2017-Apr-21 22:48N 38°41' W 009°14'0 0.0
2017-Apr-21 22:15N 38°41' W 009°14'0 0.0
2017-Apr-21 20:57N 38°41' W 009°14'0 0.0
2017-Apr-21 18:48N 38°41' W 009°14'0 0.0
2017-Apr-21 18:30N 38°41' W 009°14'0 0.0
2017-Apr-21 17:54N 38°41' W 009°14'0 0.0
2017-Apr-21 16:03N 38°41' W 009°14'0 0.0
2017-Apr-21 15:54N 38°41' W 009°14'0 0.0
2017-Apr-21 14:33N 38°41' W 009°14'0 0.0
2017-Apr-21 14:12N 38°41' W 009°14'0 0.0
2017-Apr-21 13:15N 38°41' W 009°14'0 0.0
2017-Apr-21 13:00N 38°41' W 009°14'0 0.0
2017-Apr-21 11:18N 38°41' W 009°14'0 0.0
2017-Apr-21 10:54N 38°41' W 009°14'0 0.0
2017-Apr-21 10:30N 38°41' W 009°14'0 0.0
2017-Apr-21 09:54N 38°41' W 009°14'0 0.0
2017-Apr-21 09:30N 38°41' W 009°14'0 0.0
2017-Apr-21 09:00N 38°41' W 009°14'0 0.0
2017-Apr-21 08:30N 38°41' W 009°14'1 2.4
2017-Apr-21 07:59N 38°41' W 009°15'612.0
2017-Apr-21 07:30N 38°40' W 009°23'4 8.1
2017-Apr-21 07:00N 38°39' W 009°27'510.6
2017-Apr-21 06:30N 38°36' W 009°33'713.1
2017-Apr-21 06:00N 38°34' W 009°41'612.9
2017-Apr-21 05:30N 38°32' W 009°49'612.8
2017-Apr-21 05:00N 38°31' W 009°57'612.5
2017-Apr-21 04:30N 38°31' W 010°05'5 9.8
2017-Apr-21 04:00N 38°34' W 010°10'612.3
2017-Apr-21 03:30N 38°40' W 010°11'612.8
2017-Apr-21 03:00N 38°46' W 010°11'713.1
2017-Apr-21 02:30N 38°53' W 010°11'713.3
2017-Apr-21 02:00N 38°60' W 010°11'713.5
2017-Apr-21 01:30N 39°06' W 010°07'713.7
2017-Apr-21 01:01N 39°12' W 010°03'713.8
2017-Apr-21 00:31N 39°17' W 009°58'713.7
2017-Apr-21 00:00N 39°23' W 009°53'713.7
2017-Apr-20 23:30N 39°30' W 009°50'713.8
2017-Apr-20 23:00N 39°36' W 009°46'713.9
2017-Apr-20 22:30N 39°42' W 009°42'  
2017-Apr-18 08:48N 48°12' W 006°22'14512.7
2017-Apr-17 21:22N 49°45' W 003°33'512.4
2017-Apr-17 20:57N 49°48' W 003°26'612.5
2017-Apr-17 20:30N 49°50' W 003°18'612.7
2017-Apr-17 20:00N 49°54' W 003°10'713.2
2017-Apr-17 19:30N 49°57' W 003°01'713.5
2017-Apr-17 19:01N 49°60' W 002°52'814.2
2017-Apr-17 18:27N 50°02' W 002°40'1615.0
2017-Apr-17 17:25N 50°06' W 002°16'  
Track history (hours):
 
Tides and Currents Weather Stations Pressure Air Temp Water Temp Dewpoint Dewpoint Depression Visibility Wind Speed Wind Dir Waves Ship Positions

Marianne

Last reported at 2017-Apr-27 13:47 UTC. Time now 2017-Apr-27 14:55 UTC.
Position N 51°16' E 004°15'.

Length 97 m; draft 5.5 m.

Type: Ship (hazmat cat B). MMSI: 477560836.

Date/timePositionNaut miles runAvg speedWind from/ knotsBaromVisibWave heightAir tempDewpointWater temp
2017-Apr-27 13:47N 51°16' E 004°15'0 0.0
2017-Apr-27 13:26N 51°16' E 004°15'0 0.0
2017-Apr-27 12:53N 51°16' E 004°15'0 0.0
2017-Apr-27 12:29N 51°16' E 004°15'0 0.0
2017-Apr-27 11:56N 51°16' E 004°15'0 0.0
2017-Apr-27 11:29N 51°16' E 004°15'0 0.0
2017-Apr-27 10:59N 51°16' E 004°15'0 0.5
2017-Apr-27 10:30N 51°16' E 004°16'1 1.4
2017-Apr-27 10:00N 51°16' E 004°17'1 1.1
2017-Apr-27 09:30N 51°16' E 004°18'3 5.3
2017-Apr-27 08:59N 51°19' E 004°16'510.1
2017-Apr-27 08:30N 51°23' E 004°13'4 8.8
2017-Apr-27 08:00N 51°22' E 004°06'5 9.2
2017-Apr-27 07:28N 51°26' E 004°01'4 9.0
2017-Apr-27 07:00N 51°23' E 003°56'5 9.3
2017-Apr-27 06:26N 51°21' E 003°49'5 9.8
2017-Apr-27 05:58N 51°23' E 003°43'4 7.9
2017-Apr-27 05:26N 51°26' E 003°37'4 7.8
2017-Apr-27 04:59N 51°25' E 003°31'4 9.2
2017-Apr-27 04:30N 51°24' E 003°25'510.6
2017-Apr-27 04:00N 51°24' E 003°16'612.2
2017-Apr-27 03:30N 51°24' E 003°06'612.0
2017-Apr-27 03:00N 51°22' E 002°57'612.7
2017-Apr-27 02:30N 51°22' E 002°47'4 8.6
2017-Apr-27 02:00N 51°21' E 002°40'4 8.3
2017-Apr-27 01:30N 51°20' E 002°34'0 0.1
2017-Apr-27 00:57N 51°20' E 002°34'0 0.0
2017-Apr-27 00:30N 51°20' E 002°34'0 0.0
2017-Apr-27 00:00N 51°20' E 002°34'0 0.1
2017-Apr-26 23:30N 51°20' E 002°34'0 0.2
2017-Apr-26 22:57N 51°20' E 002°34'0 0.1
2017-Apr-26 22:30N 51°20' E 002°34'0 0.1
2017-Apr-26 22:00N 51°20' E 002°34'0 0.1
2017-Apr-26 21:30N 51°20' E 002°34'0 0.0
2017-Apr-26 21:00N 51°20' E 002°34'0 0.0
2017-Apr-26 20:30N 51°20' E 002°34'1 1.8
2017-Apr-26 20:01N 51°21' E 002°33'5 9.3
2017-Apr-26 19:30N 51°20' E 002°25'5 9.8
2017-Apr-26 19:00N 51°18' E 002°18'5 9.9
2017-Apr-26 18:30N 51°16' E 002°11'611.9
2017-Apr-26 18:01N 51°13' E 002°03'5 9.0
2017-Apr-26 17:30N 51°11' E 001°57'511.0
2017-Apr-26 17:00N 51°08' E 001°49'510.8
2017-Apr-26 16:30N 51°04' E 001°43'611.0
2017-Apr-26 16:00N 51°00' E 001°37'611.6
2017-Apr-26 15:30N 50°56' E 001°31'6311.6
2017-Apr-26 10:03N 50°19' E 000°10'113.4
2017-Apr-26 09:59N 50°19' E 000°09'714.3
2017-Apr-26 09:30N 50°18' W 000°02'815.0
2017-Apr-26 08:56N 50°16' W 000°15'11512.4
2017-Apr-25 23:39N 49°44' W 003°08'110.1
2017-Apr-25 23:30N 49°43' W 003°10'510.1
2017-Apr-25 23:00N 49°41' W 003°16'510.3
2017-Apr-25 22:30N 49°38' W 003°23'8111.8
2017-Apr-25 15:39N 48°56' W 005°09'213.0
2017-Apr-25 15:30N 48°55' W 005°12'812.9
2017-Apr-25 14:52N 48°51' W 005°22'513.2
2017-Apr-25 14:30N 48°49' W 005°29'47312.1
2017-Apr-23 23:22N 41°35' W 009°57'2213.0
2017-Apr-23 21:42N 41°14' W 009°57'312.8
2017-Apr-23 21:29N 41°11' W 009°56'612.7
2017-Apr-23 21:01N 41°05' W 009°56'1512.4
2017-Apr-23 19:46N 40°50' W 009°57'412.4
2017-Apr-23 19:29N 40°46' W 009°56'612.4
2017-Apr-23 19:00N 40°40' W 009°56'612.4
2017-Apr-23 18:30N 40°34' W 009°56'612.4
2017-Apr-23 18:00N 40°28' W 009°56'612.5
2017-Apr-23 17:30N 40°21' W 009°56'812.5
2017-Apr-23 16:50N 40°13' W 009°57'412.8
2017-Apr-23 16:29N 40°08' W 009°57'612.6
2017-Apr-23 16:00N 40°02' W 009°56'612.8
2017-Apr-23 15:31N 39°56' W 009°56'612.7
2017-Apr-23 15:00N 39°50' W 009°56'1312.9
2017-Apr-23 14:01N 39°37' W 009°56'713.3
2017-Apr-23 13:30N 39°30' W 009°56'713.3
2017-Apr-23 13:00N 39°23' W 009°56'713.3
2017-Apr-23 12:31N 39°17' W 009°57'713.5
2017-Apr-23 12:01N 39°10' W 009°57'713.3
2017-Apr-23 11:30N 39°03' W 009°56'713.3
2017-Apr-23 11:01N 38°57' W 009°57'713.3
2017-Apr-23 10:30N 38°50' W 009°57'713.2
2017-Apr-23 10:01N 38°44' W 009°57'713.1
2017-Apr-23 09:30N 38°37' W 009°55'612.6
2017-Apr-23 09:01N 38°32' W 009°50'612.6
2017-Apr-23 08:30N 38°28' W 009°44'613.0
2017-Apr-23 08:00N 38°24' W 009°37'612.9
2017-Apr-23 07:30N 38°20' W 009°31'613.1
2017-Apr-23 07:01N 38°15' W 009°25'713.2
2017-Apr-23 06:31N 38°11' W 009°18'713.3
2017-Apr-23 06:01N 38°07' W 009°12'713.6
2017-Apr-23 05:30N 38°02' W 009°05'713.7
2017-Apr-23 05:00N 37°58' W 008°59'5 9.2
2017-Apr-23 04:31N 37°57' W 008°53'0 0.6
2017-Apr-23 04:00N 37°57' W 008°53'0 0.0
2017-Apr-23 03:29N 37°57' W 008°53'0 0.0
2017-Apr-23 02:59N 37°57' W 008°53'0 0.0
2017-Apr-23 02:29N 37°57' W 008°53'0 0.0
2017-Apr-23 01:59N 37°57' W 008°53'0 0.0
2017-Apr-23 01:26N 37°57' W 008°53'0 0.0
2017-Apr-23 00:59N 37°57' W 008°53'0 0.0
2017-Apr-23 00:29N 37°57' W 008°53'0 0.0
2017-Apr-22 23:59N 37°57' W 008°53'0 0.0
2017-Apr-22 23:29N 37°57' W 008°53'0 0.0
2017-Apr-22 22:59N 37°57' W 008°53'0 0.0
2017-Apr-22 22:29N 37°57' W 008°53'0 0.0
2017-Apr-22 21:59N 37°57' W 008°53'0 0.0
2017-Apr-22 21:29N 37°57' W 008°53'0 0.0
2017-Apr-22 20:59N 37°57' W 008°53'0 0.0
2017-Apr-22 20:29N 37°57' W 008°53'0 0.0
2017-Apr-22 19:59N 37°57' W 008°53'0 0.0
2017-Apr-22 19:29N 37°57' W 008°53'0 0.0
2017-Apr-22 18:59N 37°57' W 008°53'0 0.0
2017-Apr-22 18:29N 37°57' W 008°53'0 0.0
2017-Apr-22 17:59N 37°57' W 008°53'0 0.0
2017-Apr-22 17:29N 37°57' W 008°53'0 0.0
2017-Apr-22 16:59N 37°57' W 008°53'0 0.0
2017-Apr-22 16:29N 37°57' W 008°53'0 0.0
2017-Apr-22 15:59N 37°57' W 008°53'0 0.0
2017-Apr-22 15:26N 37°57' W 008°53'0 0.0
2017-Apr-22 14:59N 37°57' W 008°53'0 0.0
2017-Apr-22 14:29N 37°57' W 008°53'0 0.0
2017-Apr-22 13:29N 37°57' W 008°53'0 0.0
2017-Apr-22 12:59N 37°57' W 008°53'0 0.0
2017-Apr-22 12:29N 37°57' W 008°53'0 0.0
2017-Apr-22 11:59N 37°57' W 008°53'0 0.0
2017-Apr-22 11:29N 37°57' W 008°53'0 0.0
2017-Apr-22 11:00N 37°57' W 008°53'0 0.0
2017-Apr-22 10:30N 37°57' W 008°53'0 0.0
2017-Apr-22 10:00N 37°57' W 008°53'0 0.0
2017-Apr-22 09:30N 37°57' W 008°53'0 0.1
2017-Apr-22 09:00N 37°57' W 008°53'2 3.3
2017-Apr-22 08:30N 37°55' W 008°54'1 1.2
2017-Apr-22 08:00N 37°55' W 008°54'2 4.2
2017-Apr-22 07:30N 37°56' W 008°56'3 5.2
2017-Apr-22 07:00N 37°58' W 008°59'3 5.3
2017-Apr-22 06:30N 37°60' W 009°01'3 5.6
2017-Apr-22 06:00N 38°01' W 009°04'1 2.8
2017-Apr-22 05:30N 38°03' W 009°04'3 6.3
2017-Apr-22 05:00N 38°06' W 009°04'612.2
2017-Apr-22 04:30N 38°11' W 009°09'612.4
2017-Apr-22 04:00N 38°15' W 009°14'612.9
2017-Apr-22 03:30N 38°21' W 009°18'612.5
2017-Apr-22 03:00N 38°27' W 009°21'713.0
2017-Apr-22 02:30N 38°33' W 009°23'4 8.6
2017-Apr-22 02:00N 38°37' W 009°24'612.3
2017-Apr-22 01:30N 38°41' W 009°17'3 6.0
2017-Apr-22 01:00N 38°41' W 009°14'0 0.0
2017-Apr-22 00:30N 38°41' W 009°14'0 0.0
2017-Apr-21 23:45N 38°41' W 009°14'0 0.0
2017-Apr-21 23:27N 38°41' W 009°14'0 0.0
2017-Apr-21 22:48N 38°41' W 009°14'0 0.0
2017-Apr-21 22:15N 38°41' W 009°14'0 0.0
2017-Apr-21 20:57N 38°41' W 009°14'0 0.0
2017-Apr-21 18:48N 38°41' W 009°14'0 0.0
2017-Apr-21 18:30N 38°41' W 009°14'0 0.0
2017-Apr-21 17:54N 38°41' W 009°14'0 0.0
2017-Apr-21 16:03N 38°41' W 009°14'0 0.0
2017-Apr-21 15:54N 38°41' W 009°14'0 0.0
2017-Apr-21 14:33N 38°41' W 009°14'0 0.0
2017-Apr-21 14:12N 38°41' W 009°14'0 0.0
2017-Apr-21 13:15N 38°41' W 009°14'0 0.0
2017-Apr-21 13:00N 38°41' W 009°14'0 0.0
2017-Apr-21 11:18N 38°41' W 009°14'0 0.0
2017-Apr-21 10:54N 38°41' W 009°14'0 0.0
2017-Apr-21 10:30N 38°41' W 009°14'0 0.0
2017-Apr-21 09:54N 38°41' W 009°14'0 0.0
2017-Apr-21 09:30N 38°41' W 009°14'0 0.0
2017-Apr-21 09:00N 38°41' W 009°14'0 0.0
2017-Apr-21 08:30N 38°41' W 009°14'1 2.4
2017-Apr-21 07:59N 38°41' W 009°15'612.0
2017-Apr-21 07:30N 38°40' W 009°23'4 8.1
2017-Apr-21 07:00N 38°39' W 009°27'510.6
2017-Apr-21 06:30N 38°36' W 009°33'713.1
2017-Apr-21 06:00N 38°34' W 009°41'612.9
2017-Apr-21 05:30N 38°32' W 009°49'612.8
2017-Apr-21 05:00N 38°31' W 009°57'612.5
2017-Apr-21 04:30N 38°31' W 010°05'5 9.8
2017-Apr-21 04:00N 38°34' W 010°10'612.3
2017-Apr-21 03:30N 38°40' W 010°11'612.8
2017-Apr-21 03:00N 38°46' W 010°11'713.1
2017-Apr-21 02:30N 38°53' W 010°11'713.3
2017-Apr-21 02:00N 38°60' W 010°11'713.5
2017-Apr-21 01:30N 39°06' W 010°07'713.7
2017-Apr-21 01:01N 39°12' W 010°03'713.8
2017-Apr-21 00:31N 39°17' W 009°58'713.7
2017-Apr-21 00:00N 39°23' W 009°53'713.7
2017-Apr-20 23:30N 39°30' W 009°50'713.8
2017-Apr-20 23:00N 39°36' W 009°46'713.9
2017-Apr-20 22:30N 39°42' W 009°42'  
2017-Apr-18 08:48N 48°12' W 006°22'14512.7
2017-Apr-17 21:22N 49°45' W 003°33'512.4
2017-Apr-17 20:57N 49°48' W 003°26'612.5
2017-Apr-17 20:30N 49°50' W 003°18'612.7
2017-Apr-17 20:00N 49°54' W 003°10'713.2
2017-Apr-17 19:30N 49°57' W 003°01'713.5
2017-Apr-17 19:01N 49°60' W 002°52'814.2
2017-Apr-17 18:27N 50°02' W 002°40'1615.0
2017-Apr-17 17:25N 50°06' W 002°16'  

Dump ship's entire track history